Time;durP1;ratioP1;P1;durP2;ratioP2;P2;SDS_P1;SDS_P2;PMS_P1;PMS_P2;Temp;Humidity;BMP_temperature;BMP_pressure;BME280_temperature;BME280_humidity;BME280_pressure;Samples;Min_cycle;Max_cycle;Signal;HPM_P1;HPM_P2
2021/07/04 00:01:49;;;;;;;11.10;10.10;;;17.10;99.90;;;;;;5035406;28;20211;-72
2021/07/04 00:04:15;;;;;;;11.70;10.70;;;17.00;99.90;;;;;;5027055;28;20293;-72
2021/07/04 00:06:42;;;;;;;11.23;10.23;;;17.00;99.90;;;;;;5055444;28;20699;-72
2021/07/04 00:09:09;;;;;;;12.18;11.07;;;16.90;99.90;;;;;;5082956;22;20327;-71
2021/07/04 00:11:36;;;;;;;11.98;10.93;;;17.00;99.90;;;;;;5090247;28;20207;-71
2021/07/04 00:14:03;;;;;;;12.48;9.90;;;16.90;99.90;;;;;;5090460;28;20232;-71
2021/07/04 00:16:30;;;;;;;11.40;10.20;;;17.00;99.90;;;;;;5089267;28;20204;-71
2021/07/04 00:18:58;;;;;;;11.45;10.45;;;17.10;99.90;;;;;;5089660;28;20212;-71
2021/07/04 00:21:25;;;;;;;12.32;10.70;;;17.20;99.90;;;;;;5090610;28;20242;-71
2021/07/04 00:23:53;;;;;;;11.00;10.02;;;17.20;99.90;;;;;;5089672;28;20206;-71
2021/07/04 00:26:19;;;;;;;11.82;10.73;;;17.20;99.90;;;;;;5089974;28;20317;-71
2021/07/04 00:28:47;;;;;;;12.70;11.00;;;17.10;99.90;;;;;;5090191;28;20247;-71
2021/07/04 00:31:14;;;;;;;12.82;10.98;;;17.00;99.90;;;;;;5089891;28;20338;-71
2021/07/04 00:33:41;;;;;;;12.85;11.55;;;16.90;99.90;;;;;;5090224;28;20196;-71
2021/07/04 00:36:09;;;;;;;13.90;12.63;;;16.90;99.90;;;;;;5089361;28;20206;-71
2021/07/04 00:38:36;;;;;;;13.60;12.30;;;16.90;99.90;;;;;;5088721;28;20295;-71
2021/07/04 00:41:04;;;;;;;13.20;11.95;;;16.80;99.90;;;;;;5088687;28;20232;-71
2021/07/04 00:43:32;;;;;;;12.52;11.30;;;16.80;99.90;;;;;;5089780;28;20760;-71
2021/07/04 00:45:59;;;;;;;12.75;11.55;;;16.90;99.90;;;;;;5088644;28;20319;-71
2021/07/04 00:48:26;;;;;;;13.80;12.50;;;16.80;99.90;;;;;;5088896;28;20200;-71
2021/07/04 00:50:53;;;;;;;13.38;12.18;;;16.90;99.90;;;;;;5089063;28;20287;-71
2021/07/04 00:53:23;;;;;;;14.60;13.10;;;16.90;99.90;;;;;;5082918;22;20245;-72
2021/07/04 00:55:50;;;;;;;13.98;12.55;;;16.90;99.90;;;;;;5048726;28;20240;-72
2021/07/04 00:58:18;;;;;;;14.18;12.77;;;16.90;99.90;;;;;;5066946;22;20228;-71
2021/07/04 01:00:45;;;;;;;12.38;11.02;;;16.90;99.90;;;;;;5088741;28;20279;-71
2021/07/04 01:03:12;;;;;;;13.38;12.18;;;16.90;99.90;;;;;;5089000;28;20291;-70
2021/07/04 01:05:40;;;;;;;12.85;11.65;;;16.90;99.90;;;;;;5086808;28;20963;-71
2021/07/04 01:08:08;;;;;;;12.95;11.75;;;16.90;99.90;;;;;;5088487;28;20293;-71
2021/07/04 01:10:38;;;;;;;14.20;13.00;;;16.80;99.90;;;;;;5088519;28;20299;-71
2021/07/04 01:13:07;;;;;;;13.88;12.40;;;16.70;99.90;;;;;;5089044;28;20295;-71
2021/07/04 01:15:34;;;;;;;13.32;11.88;;;16.60;99.90;;;;;;5087391;28;20323;-71
2021/07/04 01:18:02;;;;;;;11.55;10.48;;;16.60;99.90;;;;;;5089068;28;20200;-71
2021/07/04 01:20:32;;;;;;;12.00;10.80;;;16.60;99.90;;;;;;5088688;28;20207;-72
2021/07/04 01:23:02;;;;;;;12.90;11.65;;;16.60;99.90;;;;;;5079172;22;20281;-72
2021/07/04 01:25:30;;;;;;;11.98;10.68;;;16.70;99.90;;;;;;5078789;28;20233;-72
2021/07/04 01:27:58;;;;;;;14.73;13.40;;;16.70;99.90;;;;;;5089775;22;20223;-71
2021/07/04 01:30:26;;;;;;;13.48;11.32;;;16.70;99.90;;;;;;5068849;28;20284;-70
2021/07/04 01:32:55;;;;;;;11.88;10.85;;;16.70;99.90;;;;;;5076210;22;20284;-72
2021/07/04 01:35:22;;;;;;;12.80;11.60;;;16.70;99.90;;;;;;5088932;28;20208;-71
2021/07/04 01:37:49;;;;;;;12.00;10.90;;;16.80;99.90;;;;;;5096186;22;20207;-71
2021/07/04 01:40:17;;;;;;;11.95;10.75;;;16.80;99.90;;;;;;5087797;28;20665;-71
2021/07/04 01:42:45;;;;;;;13.02;11.45;;;16.80;99.90;;;;;;5088795;28;20208;-71
2021/07/04 01:45:14;;;;;;;11.40;10.30;;;16.80;99.90;;;;;;5087737;28;20239;-72
2021/07/04 01:47:42;;;;;;;10.80;9.88;;;16.80;99.90;;;;;;5088336;28;20196;-71
2021/07/04 01:50:12;;;;;;;11.98;10.88;;;16.80;99.90;;;;;;5088129;28;20193;-71
2021/07/04 01:52:40;;;;;;;11.07;9.88;;;16.80;99.90;;;;;;5088940;28;20295;-71
2021/07/04 01:55:09;;;;;;;11.50;10.38;;;16.80;99.90;;;;;;5087597;28;20665;-71
2021/07/04 01:57:38;;;;;;;11.40;10.40;;;16.80;99.90;;;;;;5087974;28;20298;-71
2021/07/04 02:00:09;;;;;;;10.25;9.35;;;16.70;99.90;;;;;;5087690;28;20295;-71
2021/07/04 02:02:37;;;;;;;10.55;9.65;;;16.70;99.90;;;;;;5067898;28;20197;-71
2021/07/04 02:05:04;;;;;;;11.13;10.23;;;16.60;99.90;;;;;;5067589;28;20203;-71
2021/07/04 02:07:31;;;;;;;10.30;9.50;;;16.60;99.90;;;;;;5067799;28;20197;-72
2021/07/04 02:09:58;;;;;;;10.93;9.98;;;16.50;99.90;;;;;;5081194;28;20275;-71
2021/07/04 02:12:25;;;;;;;10.73;9.82;;;16.60;99.90;;;;;;5088040;28;20203;-71
2021/07/04 02:14:53;;;;;;;10.38;9.38;;;16.50;99.90;;;;;;5086686;28;20208;-71
2021/07/04 02:17:20;;;;;;;10.20;9.40;;;16.50;99.90;;;;;;5088074;28;20200;-71
2021/07/04 02:19:46;;;;;;;10.38;9.27;;;16.40;99.90;;;;;;5087707;28;20665;-71
2021/07/04 02:22:13;;;;;;;10.20;9.30;;;16.30;99.90;;;;;;5087523;28;20768;-71
2021/07/04 02:24:40;;;;;;;10.50;9.60;;;16.20;99.90;;;;;;5078978;22;20319;-72
2021/07/04 02:27:10;;;;;;;10.48;9.50;;;16.10;99.90;;;;;;5066664;28;20233;-72
2021/07/04 02:29:37;;;;;;;10.52;9.63;;;16.00;99.90;;;;;;5088973;22;20293;-71
2021/07/04 02:32:07;;;;;;;10.27;9.48;;;16.00;99.90;;;;;;5087939;28;20307;-71
2021/07/04 02:34:34;;;;;;;10.07;9.25;;;16.00;99.90;;;;;;5087442;28;20215;-71
2021/07/04 02:37:01;;;;;;;10.80;9.85;;;15.90;99.90;;;;;;5087009;28;20228;-71
2021/07/04 02:39:27;;;;;;;10.75;9.60;;;15.80;99.90;;;;;;5086594;28;20444;-71
2021/07/04 02:41:54;;;;;;;10.43;9.45;;;15.80;99.90;;;;;;5078650;28;20189;-72
2021/07/04 02:44:21;;;;;;;10.70;9.70;;;15.70;99.90;;;;;;5087178;28;20206;-71
2021/07/04 02:46:48;;;;;;;11.35;10.35;;;15.70;99.90;;;;;;5086818;28;20238;-71
2021/07/04 02:49:16;;;;;;;12.82;11.25;;;15.80;99.90;;;;;;5095000;22;20312;-72
2021/07/04 02:51:43;;;;;;;11.00;9.90;;;15.90;99.90;;;;;;5072636;28;20214;-72
2021/07/04 02:54:10;;;;;;;12.02;10.93;;;16.10;99.90;;;;;;5094043;22;20266;-71
2021/07/04 02:56:37;;;;;;;10.43;9.32;;;16.10;99.90;;;;;;5087516;28;20240;-71
2021/07/04 02:59:03;;;;;;;11.02;10.02;;;16.10;99.90;;;;;;5087061;28;20211;-71
2021/07/04 03:01:30;;;;;;;11.10;10.18;;;16.10;99.90;;;;;;5087471;28;20306;-71
2021/07/04 03:03:57;;;;;;;10.70;9.70;;;16.30;99.90;;;;;;5086841;28;20204;-73
2021/07/04 03:06:25;;;;;;;11.45;10.35;;;16.40;99.90;;;;;;5087033;28;20828;-73
2021/07/04 03:08:52;;;;;;;12.55;11.32;;;16.40;99.90;;;;;;5085950;28;20291;-73
2021/07/04 03:11:19;;;;;;;10.95;10.05;;;16.40;99.90;;;;;;5086388;28;20591;-73
2021/07/04 03:13:46;;;;;;;11.63;10.63;;;16.50;99.90;;;;;;5087965;22;20220;-74
2021/07/04 03:16:12;;;;;;;11.50;10.48;;;16.60;99.90;;;;;;5066828;28;20568;-74
2021/07/04 03:18:39;;;;;;;12.77;11.57;;;16.50;99.90;;;;;;5079776;22;20227;-73
2021/07/04 03:21:06;;;;;;;13.82;12.43;;;16.50;99.90;;;;;;5086448;28;20562;-73
2021/07/04 03:23:34;;;;;;;12.23;11.13;;;16.50;99.90;;;;;;5086443;28;20315;-71
2021/07/04 03:26:01;;;;;;;12.73;11.52;;;16.40;99.90;;;;;;5086603;28;20228;-71
2021/07/04 03:28:28;;;;;;;13.27;11.98;;;16.40;99.90;;;;;;5087086;28;20219;-71
2021/07/04 03:30:55;;;;;;;13.85;12.55;;;16.30;99.90;;;;;;5086505;28;20200;-71
2021/07/04 03:33:22;;;;;;;14.40;12.90;;;16.40;99.90;;;;;;5086980;28;20291;-71
2021/07/04 03:35:49;;;;;;;13.95;12.55;;;16.40;99.90;;;;;;5085919;28;20196;-71
2021/07/04 03:38:15;;;;;;;14.77;13.38;;;16.40;99.90;;;;;;5086596;28;20222;-71
2021/07/04 03:40:44;;;;;;;18.27;12.63;;;16.40;99.90;;;;;;5087259;28;20291;-71
2021/07/04 03:43:10;;;;;;;13.90;12.55;;;16.50;99.90;;;;;;5078295;28;20609;-71
2021/07/04 03:45:37;;;;;;;13.45;12.20;;;16.60;99.90;;;;;;5086066;28;20199;-71
2021/07/04 03:48:05;;;;;;;12.75;11.55;;;16.50;99.90;;;;;;5086665;28;20236;-71
2021/07/04 03:50:32;;;;;;;13.10;11.90;;;16.50;99.90;;;;;;5086904;28;20569;-71
2021/07/04 03:52:59;;;;;;;13.50;12.30;;;16.50;99.90;;;;;;5079436;28;20571;-71
2021/07/04 03:55:25;;;;;;;13.30;12.05;;;16.50;99.90;;;;;;5086126;28;20204;-71
2021/07/04 03:57:54;;;;;;;12.43;11.32;;;16.70;99.90;;;;;;5078183;28;20196;-71
2021/07/04 04:00:21;;;;;;;13.48;12.20;;;16.80;99.90;;;;;;5068274;22;20324;-72
2021/07/04 04:02:49;;;;;;;13.05;11.65;;;16.90;99.90;;;;;;5053168;28;20211;-73
2021/07/04 04:05:16;;;;;;;13.07;11.80;;;17.00;99.90;;;;;;5072846;22;20235;-71
2021/07/04 04:07:43;;;;;;;12.23;11.23;;;17.10;99.90;;;;;;5070664;28;20259;-71
2021/07/04 04:10:12;;;;;;;13.57;12.18;;;17.10;99.90;;;;;;5086582;28;20201;-71
2021/07/04 04:12:39;;;;;;;10.90;9.80;;;17.60;99.90;;;;;;5080893;28;20300;-71
2021/07/04 04:15:09;;;;;;;9.70;8.90;;;18.60;99.90;;;;;;5090790;22;20311;-72
2021/07/04 04:17:36;;;;;;;10.00;9.10;;;19.90;99.90;;;;;;5086292;28;20284;-72
2021/07/04 04:20:04;;;;;;;8.70;8.00;;;21.10;99.90;;;;;;5093709;22;20684;-71
2021/07/04 04:22:31;;;;;;;8.47;7.77;;;21.80;99.90;;;;;;5085454;28;20633;-71
2021/07/04 04:24:58;;;;;;;8.83;8.03;;;22.50;99.90;;;;;;5082531;28;20633;-71
2021/07/04 04:27:25;;;;;;;8.17;7.33;;;22.80;99.90;;;;;;5081905;28;20778;-71
2021/07/04 04:29:51;;;;;;;8.00;7.40;;;23.50;99.90;;;;;;5078403;22;20675;-72
2021/07/04 04:32:20;;;;;;;6.50;6.00;;;24.30;99.90;;;;;;5065849;28;20714;-72
2021/07/04 04:34:47;;;;;;;7.30;6.77;;;25.20;99.40;;;;;;5086399;22;21054;-71
2021/07/04 04:37:13;;;;;;;7.23;5.80;;;26.20;96.00;;;;;;5086721;28;20627;-71
2021/07/04 04:39:40;;;;;;;7.23;6.53;;;26.30;95.70;;;;;;5086433;28;20660;-71
2021/07/04 04:42:08;;;;;;;7.13;6.63;;;26.50;93.90;;;;;;5071053;28;20623;-71
2021/07/04 04:44:35;;;;;;;6.03;5.63;;;26.20;94.20;;;;;;5061914;28;20610;-72
2021/07/04 04:47:01;;;;;;;6.47;5.87;;;26.80;93.70;;;;;;5065451;28;20682;-72
2021/07/04 04:49:30;;;;;;;6.87;6.37;;;27.00;93.10;;;;;;5075365;22;20685;-73
2021/07/04 04:51:56;;;;;;;6.77;6.27;;;26.80;92.80;;;;;;5069115;28;20641;-73
2021/07/04 04:54:23;;;;;;;6.70;6.20;;;26.60;93.10;;;;;;5082946;22;20690;-71
2021/07/04 04:56:50;;;;;;;6.87;6.37;;;26.20;93.00;;;;;;5089593;28;21220;-71
2021/07/04 04:59:17;;;;;;;7.10;6.60;;;25.50;93.80;;;;;;5089912;28;20628;-71
2021/07/04 05:01:44;;;;;;;6.90;6.20;;;24.80;94.60;;;;;;5086699;28;20683;-71
2021/07/04 05:04:11;;;;;;;7.60;7.00;;;23.70;96.30;;;;;;5089359;28;20726;-71
2021/07/04 05:06:41;;;;;;;7.47;6.87;;;22.90;97.60;;;;;;5088874;28;20709;-71
2021/07/04 05:09:08;;;;;;;8.43;6.77;;;22.40;98.90;;;;;;5089243;28;20729;-71
2021/07/04 05:11:35;;;;;;;7.80;7.10;;;21.80;99.90;;;;;;5089639;28;20717;-71
2021/07/04 05:14:02;;;;;;;7.77;7.17;;;21.40;99.90;;;;;;5089466;28;20634;-71
2021/07/04 05:16:29;;;;;;;9.07;7.50;;;20.90;99.90;;;;;;5089000;28;20628;-71
2021/07/04 05:18:56;;;;;;;8.20;7.50;;;20.50;99.90;;;;;;5088947;28;21080;-71
2021/07/04 05:21:22;;;;;;;7.90;7.30;;;20.40;99.90;;;;;;5089253;28;20699;-71
2021/07/04 05:23:51;;;;;;;8.40;7.60;;;20.30;99.90;;;;;;5089193;28;20726;-71
2021/07/04 05:26:19;;;;;;;8.20;7.50;;;20.30;99.90;;;;;;5088733;28;20723;-71
2021/07/04 05:28:46;;;;;;;8.50;7.70;;;20.70;99.90;;;;;;5088320;28;20638;-71
2021/07/04 05:31:13;;;;;;;8.10;7.40;;;21.00;99.90;;;;;;5089287;28;20620;-71
2021/07/04 05:33:40;;;;;;;8.57;7.57;;;22.20;99.90;;;;;;5093560;22;21061;-72
2021/07/04 05:36:07;;;;;;;8.13;7.43;;;23.50;99.90;;;;;;5059388;28;20636;-72
2021/07/04 05:38:35;;;;;;;7.53;6.93;;;24.00;98.20;;;;;;5095986;22;20662;-71
2021/07/04 05:41:04;;;;;;;7.60;6.90;;;23.20;98.90;;;;;;5089015;28;20602;-71
2021/07/04 05:43:31;;;;;;;8.00;7.40;;;22.80;99.90;;;;;;5071603;28;20739;-71
2021/07/04 05:45:59;;;;;;;7.70;7.10;;;22.60;99.90;;;;;;5088082;28;20658;-73
2021/07/04 05:48:26;;;;;;;8.17;7.37;;;22.50;99.90;;;;;;5089488;28;20691;-73
2021/07/04 05:50:53;;;;;;;7.27;6.70;;;23.40;99.90;;;;;;5088592;28;21163;-70
2021/07/04 05:53:20;;;;;;;7.67;7.07;;;24.50;98.20;;;;;;5088790;28;20721;-70
2021/07/04 05:55:47;;;;;;;7.60;7.10;;;24.70;97.30;;;;;;5080301;28;20651;-70
2021/07/04 05:58:15;;;;;;;7.17;6.60;;;25.90;95.10;;;;;;5088088;28;20626;-72
2021/07/04 06:00:43;;;;;;;7.40;6.80;;;26.50;94.10;;;;;;5088453;28;20725;-72
2021/07/04 06:03:10;;;;;;;6.93;6.43;;;26.60;93.20;;;;;;5089103;28;20959;-71
2021/07/04 06:05:37;;;;;;;6.03;5.60;;;26.40;93.20;;;;;;5086745;28;21070;-71
2021/07/04 06:08:05;;;;;;;6.10;5.70;;;25.20;94.00;;;;;;5088390;28;21028;-71
2021/07/04 06:10:32;;;;;;;6.40;5.90;;;24.30;95.50;;;;;;5088623;28;20636;-71
2021/07/04 06:12:59;;;;;;;6.23;5.73;;;24.10;96.50;;;;;;5087812;28;20706;-71
2021/07/04 06:15:27;;;;;;;6.47;5.20;;;24.30;96.60;;;;;;5093490;22;20703;-72
2021/07/04 06:17:56;;;;;;;6.40;6.00;;;24.50;95.80;;;;;;5088589;28;20712;-73
2021/07/04 06:20:23;;;;;;;6.13;5.53;;;24.60;95.70;;;;;;5096380;22;20712;-71
2021/07/04 06:22:53;;;;;;;5.17;4.87;;;25.10;95.60;;;;;;5088689;28;20625;-71
2021/07/04 06:25:23;;;;;;;5.70;5.30;;;25.10;95.40;;;;;;5088425;28;21246;-73
2021/07/04 06:27:51;;;;;;;5.70;5.30;;;25.10;94.50;;;;;;5089133;28;20723;-72
2021/07/04 06:30:19;;;;;;;5.27;4.97;;;25.20;94.70;;;;;;5089341;28;20614;-72
2021/07/04 06:32:48;;;;;;;5.40;5.00;;;26.00;93.40;;;;;;5088764;28;20597;-72
2021/07/04 06:35:15;;;;;;;5.23;4.73;;;27.60;89.60;;;;;;5087105;28;21510;-72
2021/07/04 06:37:43;;;;;;;4.90;4.50;;;29.40;83.50;;;;;;5088255;28;20709;-72
2021/07/04 06:40:11;;;;;;;4.70;4.40;;;30.40;79.50;;;;;;5089751;22;20789;-72
2021/07/04 06:42:40;;;;;;;5.73;5.33;;;31.00;77.60;;;;;;5081077;28;20633;-72
2021/07/04 06:45:09;;;;;;;5.67;5.23;;;31.50;74.80;;;;;;5094117;22;20685;-70
2021/07/04 06:47:36;;;;;;;5.57;5.20;;;31.60;75.00;;;;;;5087704;28;20677;-70
2021/07/04 06:50:06;;;;;;;5.30;5.00;;;31.30;77.30;;;;;;5087535;28;20661;-72
2021/07/04 06:52:34;;;;;;;5.40;5.10;;;31.60;75.50;;;;;;5087641;28;20729;-72
2021/07/04 06:55:01;;;;;;;5.00;4.70;;;31.30;74.30;;;;;;5083657;28;20630;-73
2021/07/04 06:57:28;;;;;;;5.00;4.70;;;30.70;75.80;;;;;;5072673;28;20640;-72
2021/07/04 06:59:56;;;;;;;5.00;4.70;;;29.80;77.80;;;;;;5085056;28;20737;-73
2021/07/04 07:02:24;;;;;;;6.33;5.70;;;29.60;77.60;;;;;;5080306;28;20638;-71
2021/07/04 07:04:51;;;;;;;5.30;5.00;;;30.30;76.80;;;;;;5087141;22;20684;-71
2021/07/04 07:07:19;;;;;;;5.03;4.73;;;30.30;75.80;;;;;;5082474;28;20706;-73
2021/07/04 07:09:46;;;;;;;5.53;5.23;;;30.70;75.70;;;;;;5101561;22;21493;-71
2021/07/04 07:12:21;;;;;;;5.77;5.27;;;30.70;75.40;;;;;;5075487;28;20658;-71
2021/07/04 07:14:49;;;;;;;5.60;5.30;;;29.50;77.70;;;;;;5081143;28;20626;-72
2021/07/04 07:17:17;;;;;;;5.43;5.13;;;29.70;77.60;;;;;;5079004;28;20673;-70
2021/07/04 07:19:45;;;;;;;5.60;5.20;;;29.70;78.60;;;;;;5085107;22;20775;-73
2021/07/04 07:22:11;;;;;;;5.73;5.33;;;30.20;76.80;;;;;;5085951;28;20622;-71
2021/07/04 07:24:40;;;;;;;6.07;5.67;;;30.70;76.10;;;;;;5086781;22;20685;-71
2021/07/04 07:27:06;;;;;;;6.07;5.70;;;30.60;74.80;;;;;;5081558;28;20675;-72
2021/07/04 07:29:33;;;;;;;6.20;5.80;;;29.90;76.70;;;;;;5074035;28;20626;-71
2021/07/04 07:32:00;;;;;;;5.40;5.00;;;29.50;79.30;;;;;;5082922;28;20737;-71
2021/07/04 07:34:27;;;;;;;5.90;5.50;;;30.20;78.20;;;;;;5082668;28;20721;-69
2021/07/04 07:36:55;;;;;;;5.20;4.90;;;30.00;75.30;;;;;;5078814;28;20719;-69
2021/07/04 07:39:22;;;;;;;6.23;5.83;;;29.90;74.20;;;;;;5086801;22;21367;-74
2021/07/04 07:41:50;;;;;;;5.57;5.27;;;28.80;79.20;;;;;;5086046;28;20684;-74
2021/07/04 07:44:18;;;;;;;5.93;5.50;;;27.80;80.60;;;;;;5080371;22;20675;-69
2021/07/04 07:46:45;;;;;;;6.47;5.93;;;27.00;83.80;;;;;;5079674;28;20740;-69
2021/07/04 07:49:12;;;;;;;6.30;5.80;;;26.70;86.70;;;;;;5082231;28;20677;-70
2021/07/04 07:51:38;;;;;;;5.93;5.33;;;27.90;82.60;;;;;;5082332;28;20745;-71
2021/07/04 07:54:06;;;;;;;5.90;5.50;;;29.00;80.80;;;;;;5085911;28;20632;-71
2021/07/04 07:56:33;;;;;;;6.03;5.50;;;30.20;77.50;;;;;;5081238;28;20626;-69
2021/07/04 07:59:01;;;;;;;5.80;5.40;;;31.80;72.50;;;;;;5078778;28;20730;-69
2021/07/04 08:01:28;;;;;;;5.10;4.80;;;32.20;71.20;;;;;;5084412;28;20632;-69
2021/07/04 08:03:55;;;;;;;5.00;4.70;;;32.30;69.60;;;;;;5080095;28;20670;-70
2021/07/04 08:06:22;;;;;;;4.90;4.60;;;32.40;67.50;;;;;;5077104;28;20636;-69
2021/07/04 08:08:48;;;;;;;5.00;4.70;;;33.30;66.20;;;;;;5083210;28;21368;-69
2021/07/04 08:11:15;;;;;;;5.13;4.83;;;33.90;62.30;;;;;;5081666;28;21452;-69
2021/07/04 08:13:43;;;;;;;5.63;5.23;;;33.10;63.50;;;;;;5080041;28;21241;-69
2021/07/04 08:16:11;;;;;;;6.00;5.70;;;32.10;63.40;;;;;;5076890;28;20732;-68
2021/07/04 08:18:38;;;;;;;5.17;4.87;;;30.70;67.00;;;;;;5094543;22;21282;-69
2021/07/04 08:21:04;;;;;;;5.60;5.30;;;31.40;67.40;;;;;;5083050;28;21415;-69
2021/07/04 08:23:40;;;;;;;5.67;5.27;;;31.80;66.20;;;;;;5086187;28;20630;-69
2021/07/04 08:26:07;;;;;;;5.40;5.10;;;32.30;65.30;;;;;;5079168;28;21048;-69
2021/07/04 08:31:07;;;;;;;5.77;5.37;;;32.00;64.40;;;;;;5067784;28;20674;-68
2021/07/04 08:33:35;;;;;;;6.50;6.07;;;31.40;65.90;;;;;;5069969;28;20631;-68
2021/07/04 08:36:02;;;;;;;5.60;5.20;;;31.80;65.40;;;;;;5067647;28;20632;-68
2021/07/04 08:38:29;;;;;;;5.93;5.63;;;31.80;65.00;;;;;;5068859;28;20688;-68
2021/07/04 08:40:56;;;;;;;6.57;6.03;;;31.20;65.80;;;;;;5069568;28;20633;-68
2021/07/04 08:43:28;;;;;;;5.60;5.20;;;30.10;68.50;;;;;;5069752;28;20634;-68
2021/07/04 08:45:55;;;;;;;6.43;6.03;;;28.20;72.30;;;;;;5069522;28;20725;-68
2021/07/04 08:48:22;;;;;;;6.33;5.93;;;27.40;79.80;;;;;;5061311;28;21183;-68
2021/07/04 08:50:51;;;;;;;6.37;5.87;;;26.80;79.00;;;;;;5094990;22;20689;-69
2021/07/04 08:53:20;;;;;;;6.00;5.60;;;27.50;81.80;;;;;;5089208;28;20727;-69
2021/07/04 08:55:48;;;;;;;5.50;5.10;;;29.40;74.50;;;;;;5096956;22;20694;-68
2021/07/04 08:58:22;;;;;;;5.13;4.83;;;30.90;72.60;;;;;;5082465;28;20788;-68
2021/07/04 09:01:14;;;;;;;5.07;4.77;;;32.20;66.30;;;;;;5080940;28;20688;-68
2021/07/04 09:03:43;;;;;;;5.30;5.00;;;31.60;69.20;;;;;;5089206;28;20638;-68
2021/07/04 09:06:12;;;;;;;6.10;5.73;;;30.30;68.80;;;;;;5087145;28;20658;-68
2021/07/04 09:08:43;;;;;;;5.63;5.23;;;29.60;71.80;;;;;;5089114;28;21235;-68
2021/07/04 09:11:12;;;;;;;5.87;5.37;;;28.80;74.50;;;;;;5089484;28;20630;-68
2021/07/04 09:13:40;;;;;;;5.33;5.00;;;28.50;73.70;;;;;;5090830;28;20730;-68
2021/07/04 09:16:08;;;;;;;5.60;5.20;;;29.00;74.40;;;;;;5091071;28;20660;-68
2021/07/04 09:18:35;;;;;;;5.90;5.40;;;28.60;73.70;;;;;;5083124;28;20702;-68
2021/07/04 09:21:14;;;;;;;5.40;5.00;;;28.40;76.20;;;;;;5090282;28;20638;-68
2021/07/04 09:23:43;;;;;;;6.03;5.63;;;27.80;76.60;;;;;;5083630;28;20736;-67
2021/07/04 09:26:39;;;;;;;5.83;5.43;;;27.30;79.20;;;;;;5089518;28;20686;-68
2021/07/04 09:29:07;;;;;;;8.87;8.17;;;27.00;79.70;;;;;;5093660;22;20666;-68
2021/07/04 09:31:35;;;;;;;9.83;9.13;;;27.10;81.20;;;;;;5088539;28;21054;-69
2021/07/04 09:34:07;;;;;;;6.63;6.13;;;26.80;80.50;;;;;;5095433;22;20680;-69
2021/07/04 09:36:34;;;;;;;5.63;5.30;;;27.20;79.00;;;;;;5086986;28;20629;-69
2021/07/04 09:39:16;;;;;;;5.97;5.47;;;28.00;75.10;;;;;;5080357;28;20658;-68
2021/07/04 09:42:04;;;;;;;6.03;5.63;;;28.30;75.80;;;;;;5086474;28;21423;-68
2021/07/04 09:44:34;;;;;;;5.07;4.70;;;28.60;76.10;;;;;;5075493;28;20733;-68
2021/07/04 09:47:19;;;;;;;5.80;5.50;;;29.60;71.80;;;;;;5080216;28;20637;-68
2021/07/04 09:49:47;;;;;;;5.23;4.93;;;29.70;71.70;;;;;;5089159;22;20729;-69
2021/07/04 09:52:16;;;;;;;5.20;4.90;;;29.20;71.30;;;;;;5085929;28;20730;-69
2021/07/04 09:55:02;;;;;;;5.03;4.73;;;28.50;75.00;;;;;;5082304;28;21252;-69
2021/07/04 09:57:49;;;;;;;5.20;4.80;;;28.40;77.50;;;;;;5085787;28;20630;-69
2021/07/04 10:00:18;;;;;;;5.03;4.73;;;28.50;73.50;;;;;;5085515;22;20694;-67
2021/07/04 10:03:10;;;;;;;4.30;3.90;;;29.40;73.70;;;;;;5081021;28;20639;-67
2021/07/04 10:05:37;;;;;;;4.97;4.67;;;29.80;69.00;;;;;;5077687;28;20634;-68
2021/07/04 10:08:22;;;;;;;5.00;4.70;;;29.60;73.80;;;;;;5078737;28;20988;-68
2021/07/04 10:10:51;;;;;;;5.07;4.77;;;29.10;71.30;;;;;;5081900;28;20667;-68
2021/07/04 10:13:19;;;;;;;5.50;5.10;;;28.50;76.40;;;;;;5077155;28;20723;-67
2021/07/04 10:15:46;;;;;;;8.50;7.80;;;28.00;75.30;;;;;;5079780;28;20623;-68
2021/07/04 10:18:14;;;;;;;5.40;5.10;;;27.70;79.20;;;;;;5081592;28;20911;-68
2021/07/04 10:20:43;;;;;;;4.90;4.60;;;27.20;76.00;;;;;;5078625;28;20730;-67
2021/07/04 10:23:12;;;;;;;6.33;5.93;;;27.60;76.00;;;;;;5080428;28;20739;-67
2021/07/04 10:25:39;;;;;;;6.53;6.03;;;27.20;80.20;;;;;;5077364;28;20738;-67
2021/07/04 10:28:08;;;;;;;6.10;5.60;;;27.00;81.50;;;;;;5078687;28;20605;-67
2021/07/04 10:30:35;;;;;;;5.83;5.43;;;26.50;80.70;;;;;;5081308;28;20734;-67
2021/07/04 10:33:20;;;;;;;5.50;5.10;;;26.20;83.40;;;;;;5075906;28;20636;-68
2021/07/04 10:36:01;;;;;;;6.03;5.63;;;26.10;82.60;;;;;;5077960;28;20604;-70
2021/07/04 10:38:46;;;;;;;5.00;4.60;;;25.80;83.50;;;;;;5079779;28;20713;-70
2021/07/04 10:41:17;;;;;;;7.10;6.70;;;25.50;84.70;;;;;;5073549;28;20648;-70
2021/07/04 10:44:14;;;;;;;5.37;4.97;;;25.60;82.90;;;;;;5084287;28;20631;-71
2021/07/04 10:47:20;;;;;;;5.77;5.37;;;25.60;84.90;;;;;;5078846;28;20635;-70
2021/07/04 10:49:52;;;;;;;5.07;4.73;;;25.70;83.50;;;;;;5083931;28;20731;-69
2021/07/04 10:52:36;;;;;;;5.60;5.10;;;25.60;85.10;;;;;;5083734;28;20646;-71
2021/07/04 10:55:08;;;;;;;5.90;5.50;;;25.80;85.20;;;;;;5086269;28;20640;-71
2021/07/04 10:57:36;;;;;;;4.97;4.67;;;25.90;85.40;;;;;;5082626;28;20640;-71
2021/07/04 11:00:21;;;;;;;5.17;4.83;;;26.10;83.90;;;;;;5077562;28;20695;-71
2021/07/04 11:02:50;;;;;;;5.10;4.47;;;26.20;84.50;;;;;;5076623;28;20706;-71
2021/07/04 11:05:18;;;;;;;4.50;4.20;;;26.40;84.50;;;;;;5070031;28;20966;-71
2021/07/04 11:08:10;;;;;;;5.07;4.77;;;26.50;84.80;;;;;;5075799;28;20724;-71
2021/07/04 11:10:39;;;;;;;4.80;4.50;;;26.50;85.00;;;;;;5082742;22;21224;-72
2021/07/04 11:13:26;;;;;;;5.53;5.13;;;26.40;86.00;;;;;;5076545;28;20974;-72
2021/07/04 11:16:07;;;;;;;6.13;5.63;;;26.30;80.30;;;;;;5086895;22;20681;-72
2021/07/04 11:18:43;;;;;;;5.50;5.10;;;26.20;82.70;;;;;;5077279;28;20637;-72
2021/07/04 11:21:10;;;;;;;5.53;5.07;;;26.50;81.50;;;;;;5077466;28;20663;-72
2021/07/04 11:23:38;;;;;;;5.50;5.10;;;26.70;81.80;;;;;;5085405;28;20625;-72
2021/07/04 11:26:19;;;;;;;5.70;5.40;;;26.80;82.30;;;;;;5080684;28;20720;-72
2021/07/04 11:28:50;;;;;;;5.10;4.80;;;27.10;83.90;;;;;;5073244;28;20751;-73
2021/07/04 11:31:27;;;;;;;4.97;4.67;;;27.40;81.50;;;;;;5080019;28;20630;-72
2021/07/04 11:33:55;;;;;;;5.60;5.20;;;27.30;82.60;;;;;;5077421;28;20719;-73
2021/07/04 11:36:25;;;;;;;5.37;4.97;;;27.40;80.50;;;;;;5080736;28;20627;-73
2021/07/04 11:38:55;;;;;;;5.00;4.70;;;27.10;81.00;;;;;;5083866;28;21248;-73
2021/07/04 11:41:25;;;;;;;4.70;4.40;;;26.80;83.00;;;;;;5077886;28;20631;-73
2021/07/04 11:43:58;;;;;;;4.50;4.20;;;26.90;84.40;;;;;;5084182;28;20688;-73
2021/07/04 11:46:31;;;;;;;5.10;4.70;;;27.00;81.90;;;;;;5070449;28;20605;-72
2021/07/04 11:49:03;;;;;;;4.03;3.83;;;26.90;83.50;;;;;;5080454;28;20677;-71
2021/07/04 11:51:38;;;;;;;5.30;5.00;;;26.50;78.60;;;;;;5076210;28;20606;-70
2021/07/04 11:54:08;;;;;;;5.27;4.87;;;26.50;80.10;;;;;;5072590;28;20647;-71
2021/07/04 11:59:51;;;;;;;4.57;4.27;;;26.50;84.10;;;;;;5080272;28;20994;-71
2021/07/04 12:02:20;;;;;;;4.80;4.50;;;26.90;79.50;;;;;;5080860;28;20600;-74
2021/07/04 12:04:46;;;;;;;4.87;4.57;;;26.80;86.20;;;;;;5084935;28;20732;-72
2021/07/04 12:07:17;;;;;;;5.20;4.80;;;26.90;86.40;;;;;;5082549;28;20956;-71
2021/07/04 12:09:46;;;;;;;4.80;4.50;;;27.00;84.70;;;;;;5082752;28;20688;-71
2021/07/04 12:12:18;;;;;;;4.93;4.53;;;26.80;81.10;;;;;;5077336;28;20741;-71
2021/07/04 12:14:47;;;;;;;5.03;4.63;;;26.60;85.10;;;;;;5093379;22;20662;-73
2021/07/04 12:17:22;;;;;;;4.70;4.40;;;26.40;84.70;;;;;;5090107;28;21362;-74
2021/07/04 12:19:56;;;;;;;4.90;4.60;;;25.90;88.00;;;;;;5097511;22;20671;-72
2021/07/04 12:22:25;;;;;;;5.20;4.90;;;25.90;88.10;;;;;;5090779;28;20644;-72
2021/07/04 12:24:53;;;;;;;5.43;5.03;;;25.80;87.10;;;;;;5083419;28;20609;-72
2021/07/04 12:27:32;;;;;;;5.00;4.70;;;25.70;89.60;;;;;;5089674;28;20736;-71
2021/07/04 12:30:02;;;;;;;4.50;4.20;;;25.60;90.60;;;;;;5083574;28;20681;-68
2021/07/04 12:32:32;;;;;;;4.83;4.53;;;25.60;90.50;;;;;;5077801;28;20646;-73
2021/07/04 12:34:59;;;;;;;4.87;4.57;;;25.70;89.40;;;;;;5087630;28;21043;-73
2021/07/04 12:37:27;;;;;;;5.00;4.67;;;25.90;89.50;;;;;;5086430;28;20723;-74
2021/07/04 12:40:09;;;;;;;4.93;4.63;;;26.20;86.70;;;;;;5092703;22;20683;-73
2021/07/04 12:42:36;;;;;;;4.90;4.50;;;26.50;85.60;;;;;;5077261;28;20669;-74
2021/07/04 12:45:06;;;;;;;5.53;5.13;;;26.60;85.40;;;;;;5094696;22;20664;-73
2021/07/04 12:47:34;;;;;;;5.03;4.70;;;26.90;85.60;;;;;;5088608;28;20611;-73
2021/07/04 12:50:13;;;;;;;5.43;5.03;;;27.20;83.00;;;;;;5088708;28;20681;-73
2021/07/04 12:52:54;;;;;;;5.50;5.10;;;27.20;83.40;;;;;;5087906;28;20633;-73
2021/07/04 12:55:36;;;;;;;5.40;5.10;;;27.50;82.80;;;;;;5089262;28;21008;-73
2021/07/04 12:58:25;;;;;;;4.93;4.63;;;28.00;81.90;;;;;;5072166;28;20605;-74